Time;durP1;ratioP1;P1;durP2;ratioP2;P2;SDS_P1;SDS_P2;PMS_P1;PMS_P2;Temp;Humidity;BMP_temperature;BMP_pressure;BME280_temperature;BME280_humidity;BME280_pressure;Samples;Min_cycle;Max_cycle;Signal;HPM_P1;HPM_P2
2023/08/29 00:01:23;0.00;0.00;0.62;0.00;0.00;0.62;2.10;1.53;;;29.60;26.40;;;;;;2259538;61;20369;-55
2023/08/29 00:04:10;0.00;0.00;0.62;0.00;0.00;0.62;2.27;1.43;;;29.60;26.40;;;;;;2259333;61;20361;-53
2023/08/29 00:06:54;0.00;0.00;0.62;0.00;0.00;0.62;2.27;1.17;;;29.60;26.40;;;;;;2259693;61;20389;-53
2023/08/29 00:09:39;0.00;0.00;0.62;0.00;0.00;0.62;1.83;1.30;;;29.60;26.40;;;;;;2259818;61;20443;-58
2023/08/29 00:12:23;0.00;0.00;0.62;0.00;0.00;0.62;1.80;1.20;;;29.60;26.50;;;;;;2260021;61;20416;-50
2023/08/29 00:15:12;0.00;0.00;0.62;0.00;0.00;0.62;2.00;1.30;;;29.50;26.40;;;;;;2259540;61;20392;-55
2023/08/29 00:17:56;0.00;0.00;0.62;0.00;0.00;0.62;2.43;1.20;;;29.50;26.40;;;;;;2260008;61;20369;-51
2023/08/29 00:20:43;0.00;0.00;0.62;0.00;0.00;0.62;2.60;1.30;;;29.50;26.40;;;;;;2259726;61;20361;-52
2023/08/29 00:23:27;0.00;0.00;0.62;0.00;0.00;0.62;1.73;1.10;;;29.50;26.40;;;;;;2259586;61;20369;-52
2023/08/29 00:26:12;0.00;0.00;0.62;0.00;0.00;0.62;2.07;1.13;;;29.50;26.40;;;;;;2260907;61;20993;-50
2023/08/29 00:28:56;0.00;0.00;0.62;0.00;0.00;0.62;2.10;1.20;;;29.50;26.90;;;;;;2260595;61;20361;-48
2023/08/29 00:31:41;0.00;0.00;0.62;0.00;0.00;0.62;1.90;1.23;;;29.50;26.40;;;;;;2260127;61;20360;-53
2023/08/29 00:34:25;0.00;0.00;0.62;0.00;0.00;0.62;2.20;1.33;;;29.50;26.40;;;;;;2260148;61;20889;-56
2023/08/29 00:37:11;0.00;0.00;0.62;0.00;0.00;0.62;2.10;1.20;;;29.50;26.40;;;;;;2260521;61;20976;-54
2023/08/29 00:39:56;0.00;0.00;0.62;0.00;0.00;0.62;2.80;1.43;;;29.50;26.40;;;;;;2260784;61;20361;-55
2023/08/29 00:42:40;0.00;0.00;0.62;0.00;0.00;0.62;2.00;1.23;;;29.50;26.40;;;;;;2260663;61;20384;-54
2023/08/29 00:45:27;0.00;0.00;0.62;0.00;0.00;0.62;1.73;1.33;;;29.50;26.40;;;;;;2259955;61;20400;-50
2023/08/29 00:48:12;0.00;0.00;0.62;0.00;0.00;0.62;1.80;1.20;;;29.50;26.40;;;;;;2260438;61;20408;-53
2023/08/29 00:50:57;0.00;0.00;0.62;0.00;0.00;0.62;2.30;1.30;;;29.50;26.40;;;;;;2260515;61;21086;-51
2023/08/29 00:53:44;0.00;0.00;0.62;0.00;0.00;0.62;1.67;1.10;;;29.50;26.50;;;;;;2259339;61;20388;-53
2023/08/29 00:56:29;0.00;0.00;0.62;0.00;0.00;0.62;1.80;1.27;;;29.50;26.50;;;;;;2260585;61;20407;-54
2023/08/29 00:59:14;0.00;0.00;0.62;0.00;0.00;0.62;1.87;1.40;;;29.50;26.50;;;;;;2260399;61;20424;-50
2023/08/29 01:01:59;0.00;0.00;0.62;0.00;0.00;0.62;1.93;1.00;;;29.40;26.40;;;;;;2260460;61;20431;-52
2023/08/29 01:04:44;0.00;0.00;0.62;0.00;0.00;0.62;1.97;1.20;;;29.50;26.40;;;;;;2259666;61;20475;-55
2023/08/29 01:07:29;0.00;0.00;0.62;0.00;0.00;0.62;1.80;1.20;;;29.50;26.40;;;;;;2260192;61;20771;-49
2023/08/29 01:10:17;0.00;0.00;0.62;0.00;0.00;0.62;2.03;1.27;;;29.40;26.50;;;;;;2260593;61;20481;-52
2023/08/29 01:13:17;0.00;0.00;0.62;0.00;0.00;0.62;1.60;1.10;;;29.50;26.50;;;;;;2260225;61;20384;-54
2023/08/29 01:16:05;0.00;0.00;0.62;0.00;0.00;0.62;1.57;1.00;;;29.40;26.40;;;;;;2259905;61;20477;-50
2023/08/29 01:18:52;0.00;0.00;0.62;0.00;0.00;0.62;2.20;1.40;;;29.40;26.40;;;;;;2260026;61;20392;-50
2023/08/29 01:21:47;0.00;0.00;0.62;0.00;0.00;0.62;1.80;1.20;;;29.40;26.40;;;;;;2259990;61;20369;-50
2023/08/29 01:24:40;0.00;0.00;0.62;0.00;0.00;0.62;1.80;1.30;;;29.40;26.40;;;;;;2259209;61;20377;-52
2023/08/29 01:27:28;0.00;0.00;0.62;0.00;0.00;0.62;2.03;1.30;;;29.40;26.40;;;;;;2260891;61;20365;-53
2023/08/29 01:30:15;0.00;0.00;0.62;0.00;0.00;0.62;1.93;1.30;;;29.40;26.40;;;;;;2259786;61;20415;-49
2023/08/29 01:33:00;0.00;0.00;0.62;0.00;0.00;0.62;2.33;1.33;;;29.40;26.40;;;;;;2497678;53;20361;-55
2023/08/29 01:35:47;0.00;0.00;0.62;0.00;0.00;0.62;2.33;1.10;;;29.40;26.40;;;;;;2260594;61;20388;-52
2023/08/29 01:38:32;0.00;0.00;0.62;0.00;0.00;0.62;1.90;1.10;;;29.40;26.40;;;;;;2260377;61;20462;-51
2023/08/29 01:41:17;0.00;0.00;0.62;0.00;0.00;0.62;2.27;1.20;;;29.40;26.40;;;;;;2260084;61;20473;-49
2023/08/29 01:44:05;0.00;0.00;0.62;0.00;0.00;0.62;3.20;1.10;;;29.40;26.40;;;;;;2259990;61;20369;-53
2023/08/29 01:46:51;0.00;0.00;0.62;0.00;0.00;0.62;1.50;0.90;;;29.30;26.40;;;;;;2260350;61;20392;-53
2023/08/29 01:49:39;0.00;0.00;0.62;0.00;0.00;0.62;1.97;1.23;;;29.30;26.40;;;;;;2260363;61;20389;-50
2023/08/29 01:52:25;0.00;0.00;0.62;0.00;0.00;0.62;2.57;1.20;;;29.40;26.40;;;;;;2259870;61;20368;-54
2023/08/29 01:55:09;0.00;0.00;0.62;0.00;0.00;0.62;2.10;1.40;;;29.30;26.90;;;;;;2259645;61;20385;-54
2023/08/29 01:57:55;0.00;0.00;0.62;0.00;0.00;0.62;1.80;1.10;;;29.30;26.40;;;;;;2260372;61;20780;-55
2023/08/29 02:00:42;0.00;0.00;0.62;0.00;0.00;0.62;1.40;0.97;;;29.30;26.40;;;;;;2259734;61;20361;-51
2023/08/29 02:03:27;0.00;0.00;0.62;0.00;0.00;0.62;1.67;1.17;;;29.30;26.40;;;;;;2260096;61;20414;-54
2023/08/29 02:06:12;0.00;0.00;0.62;0.00;0.00;0.62;1.87;1.30;;;29.30;26.40;;;;;;2260197;61;20388;-52
2023/08/29 02:08:57;0.00;0.00;0.62;0.00;0.00;0.62;1.77;1.20;;;29.30;26.90;;;;;;2259978;61;20368;-52
2023/08/29 02:11:42;0.00;0.00;0.62;0.00;0.00;0.62;1.83;1.27;;;29.30;26.40;;;;;;2260441;61;20369;-53
2023/08/29 02:14:26;0.00;0.00;0.62;0.00;0.00;0.62;1.63;1.10;;;29.30;26.40;;;;;;2259191;61;20361;-52
2023/08/29 02:17:12;0.00;0.00;0.62;0.00;0.00;0.62;2.47;1.20;;;29.30;26.40;;;;;;2260373;61;20369;-52
2023/08/29 02:19:59;0.00;0.00;0.62;0.00;0.00;0.62;2.90;1.10;;;29.30;26.40;;;;;;2259969;61;20909;-50
2023/08/29 02:22:44;0.00;0.00;0.62;0.00;0.00;0.62;1.70;1.30;;;29.20;26.30;;;;;;2259875;61;20409;-60
2023/08/29 02:25:28;0.00;0.00;0.62;0.00;0.00;0.62;1.80;0.93;;;29.30;26.40;;;;;;2260361;61;20508;-54
2023/08/29 02:28:14;0.00;0.00;0.62;0.00;0.00;0.62;1.47;0.97;;;29.30;26.40;;;;;;2259978;61;21037;-49
2023/08/29 02:31:03;0.00;0.00;0.62;0.00;0.00;0.62;1.63;1.00;;;29.30;26.40;;;;;;2259981;61;20439;-53
2023/08/29 02:33:49;0.00;0.00;0.62;0.00;0.00;0.62;1.50;1.00;;;29.30;26.40;;;;;;2259501;61;20369;-52
2023/08/29 02:36:33;0.00;0.00;0.62;0.00;0.00;0.62;1.43;0.90;;;29.20;26.30;;;;;;2259998;61;20874;-53
2023/08/29 02:39:18;0.00;0.00;0.62;0.00;0.00;0.62;1.90;1.20;;;29.20;26.30;;;;;;2259964;61;20400;-53
2023/08/29 02:42:03;0.00;0.00;0.62;0.00;0.00;0.62;2.67;1.30;;;29.20;26.30;;;;;;2260038;61;20368;-54
2023/08/29 02:44:48;0.00;0.00;0.62;0.00;0.00;0.62;1.30;0.87;;;29.20;26.30;;;;;;2259238;61;20372;-53
2023/08/29 02:47:32;0.00;0.00;0.62;0.00;0.00;0.62;1.83;1.20;;;29.20;26.30;;;;;;2260103;61;20360;-48
2023/08/29 02:50:18;0.00;0.00;0.62;0.00;0.00;0.62;1.80;1.23;;;29.20;26.30;;;;;;2259565;61;20473;-54
2023/08/29 02:53:03;0.00;0.00;0.62;0.00;0.00;0.62;1.77;1.23;;;29.20;26.30;;;;;;2259909;61;20365;-52
2023/08/29 02:55:51;0.00;0.00;0.62;0.00;0.00;0.62;1.70;1.10;;;29.20;26.40;;;;;;2260177;61;20405;-52
2023/08/29 02:58:36;0.00;0.00;0.62;0.00;0.00;0.62;1.53;1.00;;;29.20;26.30;;;;;;2259329;61;20373;-53
2023/08/29 03:01:20;0.00;0.00;0.62;0.00;0.00;0.62;1.70;1.27;;;29.20;26.30;;;;;;2260270;61;20364;-56
2023/08/29 03:04:05;0.00;0.00;0.62;0.00;0.00;0.62;1.40;0.80;;;29.10;26.30;;;;;;2260602;61;20392;-52
2023/08/29 03:06:52;0.00;0.00;0.62;0.00;0.00;0.62;1.90;1.10;;;29.20;26.30;;;;;;2263645;61;20384;-53
2023/08/29 03:09:37;0.00;0.00;0.62;0.00;0.00;0.62;1.50;0.80;;;29.10;26.30;;;;;;2263792;61;20904;-52
2023/08/29 03:12:23;0.00;0.00;0.62;0.00;0.00;0.62;1.57;0.90;;;29.10;26.30;;;;;;2263580;61;20367;-51
2023/08/29 03:15:09;0.00;0.00;0.62;0.00;0.00;0.62;1.60;1.10;;;29.20;26.30;;;;;;2263625;61;20603;-55
2023/08/29 03:17:54;0.00;0.00;0.62;0.00;0.00;0.62;2.03;1.33;;;29.10;26.30;;;;;;2264046;61;20414;-54
2023/08/29 03:20:39;0.00;0.00;0.62;0.00;0.00;0.62;1.50;0.90;;;29.10;26.30;;;;;;2263262;61;20387;-52
2023/08/29 03:23:25;0.00;0.00;0.62;0.00;0.00;0.62;2.13;1.13;;;29.10;26.30;;;;;;2263686;61;20458;-54
2023/08/29 03:26:10;0.00;0.00;0.62;0.00;0.00;0.62;1.90;1.10;;;29.10;26.30;;;;;;2263872;61;20392;-49
2023/08/29 03:28:55;0.00;0.00;0.62;0.00;0.00;0.62;2.53;1.10;;;29.10;26.40;;;;;;2263845;61;20415;-52
2023/08/29 03:31:41;0.00;0.00;0.62;0.00;0.00;0.62;1.43;1.03;;;29.10;26.30;;;;;;2263092;61;20360;-53
2023/08/29 03:34:25;0.00;0.00;0.62;0.00;0.00;0.62;2.23;1.10;;;29.10;26.30;;;;;;2263031;61;20942;-54
2023/08/29 03:37:10;0.00;0.00;0.62;0.00;0.00;0.62;1.70;1.20;;;29.10;26.90;;;;;;2263645;61;20383;-55
2023/08/29 03:39:56;0.00;0.00;0.62;0.00;0.00;0.62;1.80;1.00;;;29.00;26.30;;;;;;2263251;61;20755;-52
2023/08/29 03:42:41;0.00;0.00;0.62;0.00;0.00;0.62;1.70;1.00;;;29.00;26.30;;;;;;2263200;61;20422;-53
2023/08/29 03:45:26;0.00;0.00;0.62;0.00;0.00;0.62;1.40;0.90;;;29.10;26.30;;;;;;2264080;61;20391;-49
2023/08/29 03:48:10;0.00;0.00;0.62;0.00;0.00;0.62;1.47;0.90;;;29.10;26.40;;;;;;2263718;61;20499;-55
2023/08/29 03:50:55;0.00;0.00;0.62;0.00;0.00;0.62;1.80;1.20;;;29.10;26.40;;;;;;2263209;61;20954;-52
2023/08/29 03:53:40;0.00;0.00;0.62;0.00;0.00;0.62;1.90;1.20;;;29.00;26.30;;;;;;2264003;61;20372;-53
2023/08/29 03:56:28;0.00;0.00;0.62;0.00;0.00;0.62;2.77;1.37;;;29.00;26.30;;;;;;2263689;61;20384;-48
2023/08/29 03:59:13;0.00;0.00;0.62;0.00;0.00;0.62;1.60;1.00;;;29.00;26.30;;;;;;2263632;61;20364;-50
2023/08/29 04:02:00;0.00;0.00;0.62;0.00;0.00;0.62;1.57;1.10;;;29.00;26.30;;;;;;2263588;61;20470;-56
2023/08/29 04:04:45;0.00;0.00;0.62;0.00;0.00;0.62;2.00;1.23;;;29.00;26.30;;;;;;2263488;61;20364;-57
2023/08/29 04:07:29;0.00;0.00;0.62;0.00;0.00;0.62;2.17;1.17;;;29.00;26.30;;;;;;2264054;61;20364;-55
2023/08/29 04:10:14;0.00;0.00;0.62;0.00;0.00;0.62;1.87;1.13;;;29.00;26.30;;;;;;2264166;61;20919;-53
2023/08/29 04:13:00;0.00;0.00;0.62;0.00;0.00;0.62;1.60;0.90;;;29.00;26.30;;;;;;2260302;61;20364;-50
2023/08/29 04:15:45;0.00;0.00;0.62;0.00;0.00;0.62;1.73;1.10;;;29.00;26.30;;;;;;2264083;61;20840;-50
2023/08/29 04:18:30;0.00;0.00;0.62;0.00;0.00;0.62;2.50;1.23;;;29.00;26.30;;;;;;2264197;61;20851;-56
2023/08/29 04:21:15;0.00;0.00;0.62;0.00;0.00;0.62;1.80;1.23;;;28.90;26.30;;;;;;2263677;61;20459;-54
2023/08/29 04:24:00;0.00;0.00;0.62;0.00;0.00;0.62;2.30;0.93;;;29.00;26.30;;;;;;2263846;61;20441;-53
2023/08/29 04:26:44;0.00;0.00;0.62;0.00;0.00;0.62;1.80;1.20;;;28.90;26.30;;;;;;2263883;61;20387;-51
2023/08/29 04:29:30;0.00;0.00;0.62;0.00;0.00;0.62;1.70;1.10;;;29.00;26.30;;;;;;2263788;61;20391;-53
2023/08/29 04:32:15;0.00;0.00;0.62;0.00;0.00;0.62;2.27;1.10;;;29.00;26.90;;;;;;2264237;61;20951;-49
2023/08/29 04:35:00;0.00;0.00;0.62;0.00;0.00;0.62;2.53;1.17;;;29.00;26.40;;;;;;2263081;61;20794;-50
2023/08/29 04:37:46;0.00;0.00;0.62;0.00;0.00;0.62;1.50;1.10;;;28.90;26.30;;;;;;2263647;61;20372;-53
2023/08/29 04:40:30;0.00;0.00;0.62;0.00;0.00;0.62;1.67;1.00;;;28.90;26.30;;;;;;2263698;61;20683;-51
2023/08/29 04:43:15;0.00;0.00;0.62;0.00;0.00;0.62;1.97;1.00;;;28.90;26.30;;;;;;2262593;61;20434;-49
2023/08/29 04:46:01;0.00;0.00;0.62;0.00;0.00;0.62;2.17;1.20;;;28.90;26.30;;;;;;2263419;61;20533;-47
2023/08/29 04:48:46;0.00;0.00;0.62;0.00;0.00;0.62;1.50;0.93;;;28.90;26.30;;;;;;2263035;61;20504;-50
2023/08/29 04:51:31;0.00;0.00;0.62;0.00;0.00;0.62;2.03;1.37;;;28.90;26.30;;;;;;2263136;61;20870;-50
2023/08/29 04:54:16;0.00;0.00;0.62;0.00;0.00;0.62;2.07;1.23;;;28.90;26.30;;;;;;2263383;61;20486;-53
2023/08/29 04:57:02;0.00;0.00;0.62;0.00;0.00;0.62;1.90;1.40;;;28.90;26.40;;;;;;2263031;61;20387;-53
2023/08/29 04:59:47;0.00;0.00;0.62;0.00;0.00;0.62;2.07;1.27;;;28.90;26.40;;;;;;2263784;61;20363;-52
2023/08/29 05:02:33;0.00;0.00;0.62;0.00;0.00;0.62;2.03;1.00;;;28.90;26.40;;;;;;2263395;61;20481;-50
2023/08/29 05:05:18;0.00;0.00;0.62;0.00;0.00;0.62;2.00;1.60;;;28.90;26.40;;;;;;2262877;61;20384;-54
2023/08/29 05:08:04;0.00;0.00;0.62;0.00;0.00;0.62;2.40;1.20;;;28.90;26.40;;;;;;2263535;61;20403;-51
2023/08/29 05:10:49;0.00;0.00;0.62;0.00;0.00;0.62;1.60;1.20;;;28.90;26.40;;;;;;2263973;61;20395;-50
2023/08/29 05:13:34;0.00;0.00;0.62;0.00;0.00;0.62;2.23;1.57;;;28.90;26.40;;;;;;2263437;61;20364;-53
2023/08/29 05:16:19;0.00;0.00;0.62;0.00;0.00;0.62;1.80;1.20;;;28.90;26.40;;;;;;2264174;61;21022;-53
2023/08/29 05:19:07;0.00;0.00;0.62;0.00;0.00;0.62;1.70;1.20;;;28.80;26.30;;;;;;2263783;61;20892;-59
2023/08/29 05:21:52;0.00;0.00;0.62;0.00;0.00;0.62;1.50;1.10;;;28.90;26.40;;;;;;2264133;61;20434;-53
2023/08/29 05:24:37;0.00;0.00;0.62;0.00;0.00;0.62;2.00;1.40;;;28.80;26.40;;;;;;2263815;61;20904;-53
2023/08/29 05:27:21;0.00;0.00;0.62;0.00;0.00;0.62;2.03;1.33;;;28.90;26.40;;;;;;2264429;61;21003;-50
2023/08/29 05:30:07;0.00;0.00;0.62;0.00;0.00;0.62;2.10;1.37;;;28.80;26.40;;;;;;2264582;61;20391;-52
2023/08/29 05:32:54;0.00;0.00;0.62;0.00;0.00;0.62;2.13;1.33;;;28.90;26.40;;;;;;2264376;61;20414;-51
2023/08/29 05:35:40;0.00;0.00;0.62;0.00;0.00;0.62;2.03;1.47;;;28.80;26.40;;;;;;2264244;61;20388;-53
2023/08/29 05:38:27;0.00;0.00;0.62;0.00;0.00;0.62;1.87;1.33;;;28.80;26.40;;;;;;2264582;61;20372;-51
2023/08/29 05:41:11;0.00;0.00;0.62;0.00;0.00;0.62;2.27;1.60;;;28.80;26.40;;;;;;2264054;61;20421;-54
2023/08/29 05:43:56;0.00;0.00;0.62;0.00;0.00;0.62;1.67;1.23;;;28.80;26.40;;;;;;2264362;61;20383;-54
2023/08/29 05:46:41;0.00;0.00;0.62;0.00;0.00;0.62;2.33;1.70;;;28.80;26.40;;;;;;2264377;61;20431;-47
2023/08/29 05:49:25;0.00;0.00;0.62;0.00;0.00;0.62;1.97;1.27;;;28.80;26.40;;;;;;2264003;61;20378;-49
2023/08/29 05:52:11;0.00;0.00;0.62;0.00;0.00;0.62;2.27;1.40;;;28.80;26.40;;;;;;2264536;61;20386;-56
2023/08/29 05:54:57;0.00;0.00;0.62;0.00;0.00;0.62;1.93;1.37;;;28.80;26.40;;;;;;2263946;61;20453;-51
2023/08/29 05:57:42;0.00;0.00;0.62;0.00;0.00;0.62;2.80;1.63;;;28.80;26.40;;;;;;2264215;61;20418;-58
2023/08/29 06:00:26;0.00;0.00;0.62;0.00;0.00;0.62;1.97;1.20;;;28.80;26.40;;;;;;2264460;61;20376;-51
2023/08/29 06:03:11;0.00;0.00;0.62;0.00;0.00;0.62;2.07;1.50;;;28.80;26.40;;;;;;2264011;61;20363;-51
2023/08/29 06:05:56;0.00;0.00;0.62;0.00;0.00;0.62;2.07;1.37;;;28.80;26.40;;;;;;2264579;61;20499;-56
2023/08/29 06:08:42;0.00;0.00;0.62;0.00;0.00;0.62;1.97;1.27;;;28.80;26.40;;;;;;2264253;61;20506;-52
2023/08/29 06:11:29;0.00;0.00;0.62;0.00;0.00;0.62;1.93;1.30;;;28.70;26.40;;;;;;2264032;61;20387;-53
2023/08/29 06:14:13;0.00;0.00;0.62;0.00;0.00;0.62;3.63;1.97;;;28.80;26.50;;;;;;2264169;61;20364;-53
2023/08/29 06:16:58;0.00;0.00;0.62;0.00;0.00;0.62;2.90;1.60;;;28.80;26.50;;;;;;2264626;61;20514;-49
2023/08/29 06:19:43;0.00;0.00;0.62;0.00;0.00;0.62;2.90;1.63;;;28.70;26.40;;;;;;2264357;61;20360;-53
2023/08/29 06:22:29;0.00;0.00;0.62;0.00;0.00;0.62;2.17;1.87;;;28.70;26.40;;;;;;2264251;61;20389;-50
2023/08/29 06:25:15;0.00;0.00;0.62;0.00;0.00;0.62;2.20;1.57;;;28.80;26.50;;;;;;2263441;61;20387;-50
2023/08/29 06:28:00;0.00;0.00;0.62;0.00;0.00;0.62;2.37;1.57;;;28.70;26.50;;;;;;2264486;61;20991;-50
2023/08/29 06:30:44;0.00;0.00;0.62;0.00;0.00;0.62;2.00;1.37;;;28.70;26.50;;;;;;2264258;61;20387;-51
2023/08/29 06:33:29;0.00;0.00;0.62;0.00;0.00;0.62;2.10;1.23;;;28.70;26.50;;;;;;2263558;61;20931;-54
2023/08/29 06:36:13;0.00;0.00;0.62;0.00;0.00;0.62;1.90;1.43;;;28.70;26.50;;;;;;2264310;61;20712;-55
2023/08/29 06:38:58;0.00;0.00;0.62;0.00;0.00;0.62;2.37;1.70;;;28.70;26.50;;;;;;2264492;61;20499;-49
2023/08/29 06:41:44;0.00;0.00;0.62;0.00;0.00;0.62;3.20;1.70;;;28.70;26.50;;;;;;2264085;61;20406;-52
2023/08/29 06:44:30;0.00;0.00;0.62;0.00;0.00;0.62;2.20;1.60;;;28.70;26.50;;;;;;2263652;61;20836;-54
2023/08/29 06:47:14;0.00;0.00;0.62;0.00;0.00;0.62;2.37;1.67;;;28.70;26.50;;;;;;2264439;61;20810;-55
2023/08/29 06:49:59;0.00;0.00;0.62;0.00;0.00;0.62;2.10;1.60;;;28.70;26.50;;;;;;2264254;61;20821;-58
2023/08/29 06:52:43;0.00;0.00;0.62;0.00;0.00;0.62;2.67;1.70;;;28.70;26.50;;;;;;2264273;61;20550;-52
2023/08/29 06:55:28;0.00;0.00;0.62;0.00;0.00;0.62;2.13;1.50;;;28.70;26.50;;;;;;2263926;61;20395;-52
2023/08/29 06:58:14;0.00;0.00;0.62;0.00;0.00;0.62;2.00;1.43;;;28.70;26.50;;;;;;2264283;61;20364;-53
2023/08/29 07:00:58;0.00;0.00;0.62;0.00;0.00;0.62;2.13;1.63;;;28.70;26.50;;;;;;2264248;61;20380;-53
2023/08/29 07:03:43;0.00;0.00;0.62;0.00;0.00;0.62;3.00;2.00;;;28.70;26.50;;;;;;2263364;61;20415;-54
2023/08/29 07:06:27;0.00;0.00;0.62;0.00;0.00;0.62;2.73;1.73;;;28.70;26.50;;;;;;2264353;61;20410;-52
2023/08/29 07:09:12;0.00;0.00;0.62;0.00;0.00;0.62;2.37;1.77;;;28.70;26.60;;;;;;2263924;61;20434;-52
2023/08/29 07:11:57;0.00;0.00;0.62;0.00;0.00;0.62;4.60;1.70;;;28.70;26.60;;;;;;2263586;61;20900;-48
2023/08/29 07:14:43;0.00;0.00;0.62;0.00;0.00;0.62;1.97;1.30;;;28.70;26.60;;;;;;2263932;61;20364;-50
2023/08/29 07:17:28;0.00;0.00;0.62;0.00;0.00;0.62;2.47;1.80;;;28.70;26.60;;;;;;2263902;61;20400;-53
2023/08/29 07:20:13;0.00;0.00;0.62;0.00;0.00;0.62;2.23;1.47;;;28.70;26.60;;;;;;2264058;61;20403;-57
2023/08/29 07:22:57;0.00;0.00;0.62;0.00;0.00;0.62;3.57;1.80;;;28.60;26.50;;;;;;2264416;61;20364;-53
2023/08/29 07:25:44;0.00;0.00;0.62;0.00;0.00;0.62;2.70;1.73;;;28.70;26.60;;;;;;2263816;61;20408;-55
2023/08/29 07:28:29;0.00;0.00;0.62;0.00;0.00;0.62;2.33;1.50;;;28.70;26.60;;;;;;2264268;61;20422;-54
2023/08/29 07:31:15;0.00;0.00;0.62;0.00;0.00;0.62;1.80;1.50;;;28.60;26.50;;;;;;2263725;61;20431;-51
2023/08/29 07:34:00;0.00;0.00;0.62;0.00;0.00;0.62;2.67;1.70;;;28.70;26.60;;;;;;2263719;61;20367;-53
2023/08/29 07:36:44;0.00;0.00;0.62;0.00;0.00;0.62;2.23;1.30;;;28.70;26.60;;;;;;2264275;61;20438;-52
2023/08/29 07:39:29;0.00;0.00;0.62;0.00;0.00;0.62;2.93;2.17;;;28.70;26.60;;;;;;2263636;61;20443;-51
2023/08/29 07:42:13;0.00;0.00;0.62;0.00;0.00;0.62;1.93;1.50;;;28.60;26.60;;;;;;2264381;61;20363;-49
2023/08/29 07:44:59;0.00;0.00;0.62;0.00;0.00;0.62;3.80;2.07;;;28.70;26.70;;;;;;2263950;61;20840;-53
2023/08/29 07:47:45;0.00;0.00;0.62;0.00;0.00;0.62;2.27;1.57;;;28.70;26.70;;;;;;2263406;61;20452;-49
2023/08/29 07:50:30;0.00;0.00;0.62;0.00;0.00;0.62;2.83;1.70;;;28.60;26.70;;;;;;2263757;61;20395;-54
2023/08/29 07:53:14;0.00;0.00;0.62;0.00;0.00;0.62;2.00;1.60;;;28.60;26.70;;;;;;2263609;61;20410;-52
2023/08/29 07:55:59;0.00;0.00;0.62;0.00;0.00;0.62;3.30;1.87;;;28.60;26.70;;;;;;2263476;61;20383;-52
2023/08/29 07:58:43;0.00;0.00;0.62;0.00;0.00;0.62;2.23;1.80;;;28.60;26.70;;;;;;2264023;61;20372;-51
2023/08/29 08:01:28;0.00;0.00;0.62;0.00;0.00;0.62;2.57;2.07;;;28.60;26.70;;;;;;2263812;61;20399;-54
2023/08/29 08:04:14;0.00;0.00;0.62;0.00;0.00;0.62;2.27;1.63;;;28.60;26.70;;;;;;2263780;61;20876;-50
2023/08/29 08:06:59;0.00;0.00;0.62;0.00;0.00;0.62;2.40;1.77;;;28.60;26.70;;;;;;2264215;61;20427;-52
2023/08/29 08:09:43;0.00;0.00;0.62;0.00;0.00;0.62;1.93;1.47;;;28.60;26.80;;;;;;2263474;61;20364;-55
2023/08/29 08:12:28;0.00;0.00;0.62;0.00;0.00;0.62;2.77;2.00;;;28.60;26.80;;;;;;2264032;61;20363;-54
2023/08/29 08:15:12;0.00;0.00;0.62;0.00;0.00;0.62;2.53;1.83;;;28.60;26.80;;;;;;2263444;61;20973;-51
2023/08/29 08:17:57;0.00;0.00;0.62;0.00;0.00;0.62;4.00;2.63;;;28.70;26.90;;;;;;2262971;61;20376;-55
2023/08/29 08:20:43;0.00;0.00;0.62;0.00;0.00;0.62;3.20;1.83;;;28.60;26.90;;;;;;2263713;61;20360;-56
2023/08/29 08:23:27;0.00;0.00;0.62;0.00;0.00;0.62;4.30;2.20;;;28.60;27.00;;;;;;2263636;61;20818;-51
2023/08/29 08:26:12;0.00;0.00;0.62;0.00;0.00;0.62;3.03;2.10;;;28.60;27.10;;;;;;2263734;61;20438;-56
2023/08/29 08:28:59;0.00;0.00;0.62;0.00;0.00;0.62;2.80;2.10;;;28.60;27.20;;;;;;2263902;61;20781;-51
2023/08/29 08:31:43;0.00;0.00;0.62;0.00;0.00;0.62;6.10;2.43;;;28.60;27.30;;;;;;2262902;61;20877;-53
2023/08/29 08:34:28;0.00;0.00;0.62;0.00;0.00;0.62;5.97;2.00;;;28.60;27.50;;;;;;2263265;61;20502;-50
2023/08/29 08:37:14;0.00;0.00;0.62;0.00;0.00;0.62;2.97;2.67;;;28.60;27.50;;;;;;2263930;61;20452;-55
2023/08/29 08:39:59;0.00;0.00;0.62;0.00;0.00;0.62;5.43;2.70;;;28.60;27.70;;;;;;2263816;61;20887;-54
2023/08/29 08:42:44;0.00;0.00;0.62;0.00;0.00;0.62;3.50;2.30;;;28.60;27.70;;;;;;2264169;61;20356;-47
2023/08/29 08:45:29;0.00;0.00;0.62;0.00;0.00;0.62;4.80;2.60;;;28.60;27.70;;;;;;2264169;61;20403;-49
2023/08/29 08:48:15;0.00;0.00;0.62;0.00;0.00;0.62;3.63;1.93;;;28.60;27.70;;;;;;2264134;61;20475;-54
2023/08/29 08:51:00;0.00;0.00;0.62;0.00;0.00;0.62;2.27;1.77;;;28.60;27.70;;;;;;2264580;61;20396;-53
2023/08/29 08:53:48;0.00;0.00;0.62;0.00;0.00;0.62;4.47;2.33;;;28.50;27.70;;;;;;2263953;61;20403;-55
2023/08/29 08:56:33;0.00;0.00;0.62;0.00;0.00;0.62;2.50;1.93;;;28.50;27.80;;;;;;2264796;61;20403;-55
2023/08/29 08:59:18;0.00;0.00;0.62;0.00;0.00;0.62;4.10;1.73;;;28.60;28.00;;;;;;2264750;61;20395;-50
2023/08/29 09:02:02;0.00;0.00;0.62;0.00;0.00;0.62;3.37;1.80;;;28.60;28.00;;;;;;2264119;61;20506;-55
2023/08/29 09:04:47;0.00;0.00;0.62;0.00;0.00;0.62;4.90;1.87;;;28.60;28.00;;;;;;2264193;61;20359;-53
2023/08/29 09:07:35;0.00;0.00;0.62;0.00;0.00;0.62;6.10;1.97;;;28.60;28.00;;;;;;2261341;61;20360;-55
2023/08/29 09:10:22;0.00;0.00;0.62;0.00;0.00;0.62;3.97;2.00;;;28.60;28.00;;;;;;2264287;61;20449;-52
2023/08/29 09:13:15;0.00;0.00;0.62;0.00;0.00;0.62;2.70;1.60;;;28.50;28.00;;;;;;2264521;61;20881;-55
2023/08/29 09:16:01;0.00;0.00;0.62;0.00;0.00;0.62;3.50;2.07;;;28.50;28.10;;;;;;2264013;61;20834;-55
2023/08/29 09:18:51;0.00;0.00;0.62;0.00;0.00;0.62;2.53;1.53;;;28.50;28.20;;;;;;2264533;61;20486;-54
2023/08/29 09:21:36;0.00;0.00;0.62;0.00;0.00;0.62;2.97;1.90;;;28.50;28.30;;;;;;2264371;61;20356;-56
2023/08/29 09:24:33;0.00;0.00;0.62;0.00;0.00;0.62;3.00;1.57;;;28.50;28.40;;;;;;2263716;61;20888;-49
2023/08/29 09:27:19;0.00;0.00;0.62;0.00;0.00;0.62;1.70;1.20;;;28.50;28.50;;;;;;2264681;61;20986;-55
2023/08/29 09:30:10;0.00;0.00;0.62;0.00;0.00;0.62;3.10;1.83;;;28.50;28.30;;;;;;2264462;61;20518;-54
2023/08/29 09:32:54;0.00;0.00;0.62;0.00;0.00;0.62;2.63;1.60;;;28.50;28.20;;;;;;2264431;61;20403;-57
2023/08/29 09:35:39;0.00;0.00;0.62;0.00;0.00;0.62;3.00;1.57;;;28.50;28.10;;;;;;2264690;61;20388;-55
2023/08/29 09:38:32;0.00;0.00;0.62;0.00;0.00;0.62;2.47;1.90;;;28.40;28.00;;;;;;2263794;61;20774;-55
2023/08/29 09:41:17;0.00;0.00;0.62;0.00;0.00;0.62;3.00;1.40;;;28.40;28.00;;;;;;2264584;61;20364;-53
2023/08/29 09:44:11;0.00;0.00;0.62;0.00;0.00;0.62;2.83;1.30;;;28.30;28.00;;;;;;2264340;61;20359;-57
2023/08/29 09:46:56;0.00;0.00;0.62;0.00;0.00;0.62;3.40;1.60;;;28.30;28.10;;;;;;2263911;61;20480;-56
2023/08/29 09:49:43;0.00;0.00;0.62;0.00;0.00;0.62;10.53;3.03;;;28.30;28.20;;;;;;2264132;61;20411;-56
2023/08/29 09:52:29;0.00;0.00;0.62;0.00;0.00;0.62;7.53;2.13;;;28.30;28.70;;;;;;2263919;61;20526;-54
2023/08/29 09:55:16;0.00;0.00;0.62;0.00;0.00;0.62;10.33;1.90;;;28.30;28.10;;;;;;2263741;61;20784;-52
2023/08/29 09:58:04;0.00;0.00;0.62;0.00;0.00;0.62;5.20;1.80;;;28.30;28.20;;;;;;2264568;61;20462;-53
2023/08/29 10:00:51;0.00;0.00;0.62;0.00;0.00;0.62;19.40;2.37;;;28.30;28.20;;;;;;2263993;61;20839;-58
2023/08/29 10:03:37;0.00;0.00;0.62;0.00;0.00;0.62;3.03;1.80;;;28.30;28.20;;;;;;2264140;61;20395;-54
2023/08/29 10:06:22;0.00;0.00;0.62;0.00;0.00;0.62;8.53;1.80;;;28.30;28.20;;;;;;2264407;61;20900;-55
2023/08/29 10:09:08;0.00;0.00;0.62;0.00;0.00;0.62;3.40;1.50;;;28.30;28.30;;;;;;2263964;61;20375;-55
2023/08/29 10:11:54;0.00;0.00;0.62;0.00;0.00;0.62;3.27;1.50;;;28.30;28.20;;;;;;2264011;61;20391;-56
2023/08/29 10:14:41;0.00;0.00;0.62;0.00;0.00;0.62;4.20;1.47;;;28.20;28.20;;;;;;2262749;61;20456;-51
2023/08/29 10:17:30;0.00;0.00;0.62;0.00;0.00;0.62;3.63;2.40;;;28.20;28.30;;;;;;2263724;61;20386;-54
2023/08/29 10:34:41;0.00;0.00;0.62;0.00;0.00;0.62;4.63;2.23;;;28.10;28.00;;;;;;1664292;74;20498;-49
2023/08/29 10:37:26;0.00;0.00;0.62;0.00;0.00;0.62;3.73;1.90;;;28.00;28.60;;;;;;2283467;61;20872;-50
2023/08/29 10:40:13;0.00;0.00;0.62;0.00;0.00;0.62;5.50;2.00;;;28.00;28.50;;;;;;2265677;61;20406;-53
2023/08/29 10:43:00;0.00;0.00;0.62;0.00;0.00;0.62;3.60;1.60;;;28.00;28.50;;;;;;2267783;61;20809;-54
2023/08/29 10:45:59;0.00;0.00;0.62;0.00;0.00;0.62;2.47;1.80;;;28.00;28.50;;;;;;2267715;61;20359;-50
2023/08/29 10:48:54;0.00;0.00;0.62;0.00;0.00;0.62;2.60;1.40;;;27.90;28.50;;;;;;2267459;61;20372;-57
2023/08/29 10:52:04;0.00;0.00;0.62;0.00;0.00;0.62;3.20;1.80;;;28.00;28.60;;;;;;2267695;61;20391;-55
2023/08/29 10:55:02;0.00;0.00;0.62;0.00;0.00;0.62;4.03;1.43;;;27.90;28.30;;;;;;2266526;61;20952;-52
2023/08/29 10:57:47;0.00;0.00;0.62;0.00;0.00;0.62;3.10;1.50;;;27.90;28.30;;;;;;2267994;61;20364;-51
2023/08/29 11:00:51;0.00;0.00;0.62;0.00;0.00;0.62;2.57;1.50;;;27.90;28.30;;;;;;2267554;61;20881;-52
2023/08/29 11:03:52;0.00;0.00;0.62;0.00;0.00;0.62;1.80;1.23;;;27.80;28.30;;;;;;2268286;61;20797;-54
2023/08/29 11:06:55;0.00;0.00;0.62;0.00;0.00;0.62;2.43;1.40;;;27.80;28.00;;;;;;2268268;61;20405;-52
2023/08/29 11:09:40;0.00;0.00;0.62;0.00;0.00;0.62;2.00;1.47;;;27.80;28.00;;;;;;2267722;61;20976;-54